Ana Sayfa
METAR-TAF:

METAR-TAF

Havaalanları :

Eskişehir Anadolu Havalimanı

Eskişehir, Türkiye

Enlem: 39-48-36N, Boylam: 30-31-10E, yükseklik: 789 m

Güncel hava durumu gözlemi

Rapor saat 13:50 UTC de 59 dakika önce yapıldı.
Rüzgar kuzey/kuzeybatıdan 13 kt, batı/kuzeybatı ve kuzey arasında değişken
Sıcaklık 8°C
Nem 46%
Basınç 1020 hPa
Görüş mesafesi 10 km veya daha fazla
3500 ft yükseklikte parçalı çok bulutlu

METAR: LTBY 211350Z 34013KT 300V010 9999 BKN035 08/M03 Q1020

Saat: 17:49 (14:49 UTC)

Tahmin

Rapor saat 13:40 UTC de 1 saat ve 9 dakika önce yapıldı.
Ayın 21'si saat 15 UTC'den ayın 21'si saat 24 UTC'ye kadar geçerli Tahmin
Rüzgar batıdan 8 kt
Görüş mesafesi 10 km veya daha fazla
4000 ft yükseklikte parçalı bulutlu
Dönüşüyor
ayın 21'si saat 16 UTC'den ayın 21'si saat 18 UTC'ye kadar
Görüş mesafesi 10 km veya daha fazla
1500 m altında bulut yok ve kümülonimbus yok

TAF: LTBY 211340Z 2115/2124 28008KT 9999 SCT040 BECMG 2116/2118 CAVOK

4.000'den fazla havaalanı için hava durumu gözlemleri ve tahminleri (METAR ve TAF raporları).

Kullanılabilir istasyonlar harita üzerinde sarı ve kırmızı noktalarla gösterilir.

İstasyonun adını görmek için fareyi noktanın üzerinde gezdirin.

Sonrasında hava gözlem ve tahminlerini görmek için tıklayın.

Haritayı değiştirmek için: yaklaştırmak için siyah artı işaretli yeşil düğmeye ve uzaklaştırmak için de eksi işaretli düğmeye hızla tıklayın; bitişik haritalar için yeşil okları kullanın.


METAR-TAF: